Time;durP1;ratioP1;P1;durP2;ratioP2;P2;SDS_P1;SDS_P2;PMS_P1;PMS_P2;Temp;Humidity;BMP_temperature;BMP_pressure;BME280_temperature;BME280_humidity;BME280_pressure;Samples;Min_cycle;Max_cycle;Signal;HPM_P1;HPM_P2
2021/10/20 00:00:24;;;;;;;2.92;1.67;;;14.30;99.90;;;;;;4995171;28;20026;-87
2021/10/20 00:02:50;;;;;;;4.05;1.80;;;14.20;99.90;;;;;;5027940;28;20030;-88
2021/10/20 00:05:17;;;;;;;2.60;1.48;;;14.20;99.90;;;;;;5027508;28;20037;-87
2021/10/20 00:07:45;;;;;;;2.28;1.67;;;14.20;99.90;;;;;;5027618;28;20037;-87
2021/10/20 00:10:11;;;;;;;2.45;1.60;;;14.20;99.90;;;;;;5027895;28;20036;-87
2021/10/20 00:12:37;;;;;;;3.10;1.90;;;14.20;99.90;;;;;;5027614;28;20111;-88
2021/10/20 00:15:05;;;;;;;3.88;1.45;;;14.30;99.90;;;;;;5027468;28;20034;-90
2021/10/20 00:17:32;;;;;;;2.58;1.20;;;14.30;99.90;;;;;;5027658;28;20130;-88
2021/10/20 00:20:05;;;;;;;3.15;2.05;;;14.20;99.90;;;;;;5027514;28;20081;-89
2021/10/20 00:22:31;;;;;;;6.38;1.92;;;14.30;99.90;;;;;;5026867;28;20030;-87
2021/10/20 00:24:56;;;;;;;3.33;1.80;;;14.30;99.90;;;;;;5027300;28;20041;-84
2021/10/20 00:27:22;;;;;;;4.50;1.65;;;14.20;99.90;;;;;;4995452;28;20541;-85
2021/10/20 00:29:47;;;;;;;3.20;1.77;;;14.20;99.90;;;;;;5028741;28;20037;-86
2021/10/20 00:32:13;;;;;;;3.65;1.77;;;14.20;99.90;;;;;;5028261;28;20117;-84
2021/10/20 00:34:39;;;;;;;4.00;2.25;;;14.10;99.90;;;;;;5027145;28;20068;-86
2021/10/20 00:37:06;;;;;;;4.80;1.98;;;14.20;99.90;;;;;;5027067;28;20041;-81
2021/10/20 00:39:31;;;;;;;6.13;1.98;;;14.20;99.90;;;;;;5027176;28;20544;-80
2021/10/20 00:41:57;;;;;;;3.17;1.70;;;14.30;99.90;;;;;;5027074;28;20030;-82
2021/10/20 00:44:22;;;;;;;3.65;1.58;;;14.20;99.90;;;;;;5026994;28;20033;-80
2021/10/20 00:46:49;;;;;;;2.63;1.60;;;14.20;99.90;;;;;;5035196;28;20052;-81
2021/10/20 00:49:16;;;;;;;2.20;1.55;;;14.40;99.90;;;;;;5046517;28;20224;-81
2021/10/20 00:51:42;;;;;;;6.57;1.38;;;14.50;99.90;;;;;;5047566;28;20035;-82
2021/10/20 00:54:08;;;;;;;2.85;1.42;;;14.40;99.90;;;;;;5017129;28;20029;-83
2021/10/20 00:56:34;;;;;;;3.38;1.02;;;14.40;99.90;;;;;;5046271;28;20092;-85
2021/10/20 00:59:00;;;;;;;4.85;1.95;;;14.40;99.90;;;;;;5051568;28;20034;-88
2021/10/20 01:01:26;;;;;;;3.22;1.23;;;14.30;99.90;;;;;;5056805;28;20041;-87
2021/10/20 01:03:52;;;;;;;2.20;1.05;;;14.30;99.90;;;;;;5039610;28;20029;-87
2021/10/20 01:06:18;;;;;;;3.40;1.20;;;14.30;99.90;;;;;;5039416;28;20030;-87
2021/10/20 01:08:44;;;;;;;4.28;1.10;;;14.20;99.90;;;;;;5039852;28;20044;-87
2021/10/20 01:11:10;;;;;;;2.72;1.08;;;14.20;99.90;;;;;;5057176;28;20057;-86
2021/10/20 01:13:36;;;;;;;2.85;1.23;;;14.30;99.90;;;;;;5058324;28;20041;-87
2021/10/20 01:16:03;;;;;;;1.90;0.90;;;14.30;99.90;;;;;;5057405;28;20036;-88
2021/10/20 01:18:29;;;;;;;5.28;1.20;;;14.30;99.90;;;;;;5058113;28;20029;-88
2021/10/20 01:20:58;;;;;;;2.35;1.13;;;14.30;99.90;;;;;;5056752;28;20036;-87
2021/10/20 01:23:24;;;;;;;5.18;1.48;;;14.50;99.90;;;;;;5056636;28;20052;-87
2021/10/20 01:25:50;;;;;;;2.63;1.38;;;14.40;99.90;;;;;;5073682;28;20030;-88
2021/10/20 01:28:16;;;;;;;3.00;1.23;;;14.40;99.90;;;;;;5040199;28;20024;-87
2021/10/20 01:30:42;;;;;;;2.78;1.10;;;14.30;99.90;;;;;;5040206;28;20014;-90
2021/10/20 01:33:09;;;;;;;4.50;0.90;;;14.40;99.90;;;;;;5057406;28;20104;-89
2021/10/20 01:35:35;;;;;;;2.80;1.13;;;14.30;99.90;;;;;;5072871;28;20068;-88
2021/10/20 01:38:02;;;;;;;2.20;1.10;;;14.20;99.90;;;;;;5055545;28;20025;-89
2021/10/20 01:40:28;;;;;;;3.25;1.13;;;14.40;99.90;;;;;;5041165;28;20060;-90
2021/10/20 01:42:54;;;;;;;2.05;1.02;;;14.40;99.90;;;;;;5074321;28;20041;-89
2021/10/20 01:45:20;;;;;;;2.35;1.15;;;14.40;99.90;;;;;;5055706;28;20101;-82
2021/10/20 01:47:46;;;;;;;4.25;0.95;;;14.30;99.90;;;;;;5062190;28;20482;-88
2021/10/20 01:50:14;;;;;;;2.42;1.02;;;14.30;99.90;;;;;;5029242;28;20037;-86
2021/10/20 01:52:41;;;;;;;3.47;1.30;;;14.30;99.90;;;;;;5045459;28;20025;-86
2021/10/20 01:55:08;;;;;;;2.88;1.10;;;14.40;99.90;;;;;;5050980;28;20408;-90
2021/10/20 01:57:34;;;;;;;3.13;1.70;;;14.60;99.90;;;;;;5012729;28;20492;-88
2021/10/20 02:00:00;;;;;;;3.22;1.48;;;14.60;99.90;;;;;;5012465;28;20045;-87
2021/10/20 02:02:26;;;;;;;4.68;1.63;;;14.60;99.90;;;;;;5028791;28;20027;-89
2021/10/20 02:04:51;;;;;;;2.58;1.27;;;14.70;99.90;;;;;;5028803;28;20473;-88
2021/10/20 02:07:17;;;;;;;3.97;1.30;;;14.50;99.90;;;;;;5028581;28;20060;-88
2021/10/20 02:09:44;;;;;;;2.58;1.25;;;14.60;99.90;;;;;;5012537;28;20029;-87
2021/10/20 02:12:10;;;;;;;2.63;1.60;;;14.60;99.90;;;;;;5011976;28;20037;-86
2021/10/20 02:14:36;;;;;;;3.08;1.30;;;14.50;99.90;;;;;;5029841;28;20030;-88
2021/10/20 02:17:02;;;;;;;2.80;1.40;;;14.60;99.90;;;;;;5012019;28;20076;-87
2021/10/20 02:19:28;;;;;;;3.95;1.13;;;14.60;99.90;;;;;;5011955;28;20397;-88
2021/10/20 02:21:57;;;;;;;3.25;1.60;;;14.50;99.90;;;;;;5011998;28;20033;-88
2021/10/20 02:24:24;;;;;;;2.83;1.58;;;14.70;99.90;;;;;;5044893;28;20060;-90
2021/10/20 02:26:51;;;;;;;4.55;1.33;;;14.70;99.90;;;;;;5028759;28;20037;-88
2021/10/20 02:29:17;;;;;;;2.70;1.60;;;14.70;99.90;;;;;;5012214;28;20037;-86
2021/10/20 02:31:46;;;;;;;2.58;1.25;;;14.70;99.90;;;;;;5012049;28;20136;-87
2021/10/20 02:34:19;;;;;;;2.95;2.00;;;14.70;99.90;;;;;;5011817;28;20114;-88
2021/10/20 02:36:45;;;;;;;3.45;1.60;;;14.80;99.90;;;;;;5028372;28;20618;-88
2021/10/20 02:39:12;;;;;;;3.10;1.70;;;14.70;99.90;;;;;;5011996;28;20041;-89
2021/10/20 02:41:38;;;;;;;4.13;1.92;;;14.80;99.90;;;;;;5011982;28;20033;-87
2021/10/20 02:44:05;;;;;;;4.45;2.08;;;14.90;99.90;;;;;;5012003;28;20083;-89
2021/10/20 02:46:31;;;;;;;4.93;1.65;;;14.90;99.90;;;;;;5011858;28;20053;-86
2021/10/20 02:48:57;;;;;;;3.22;1.30;;;14.80;99.90;;;;;;5012070;28;20093;-90
2021/10/20 02:51:23;;;;;;;3.97;1.63;;;14.70;99.90;;;;;;5012128;28;20044;-85
2021/10/20 02:53:49;;;;;;;2.88;1.33;;;14.90;99.90;;;;;;5028013;28;20444;-83
2021/10/20 02:56:17;;;;;;;4.13;1.73;;;14.80;99.90;;;;;;5032842;28;20037;-86
2021/10/20 02:58:43;;;;;;;3.42;1.23;;;14.70;99.90;;;;;;5044573;28;20045;-85
2021/10/20 03:01:09;;;;;;;4.60;1.58;;;14.70;99.90;;;;;;5028441;28;20021;-87
2021/10/20 03:03:34;;;;;;;2.40;1.30;;;14.80;99.90;;;;;;5028311;28;20049;-87
2021/10/20 03:06:00;;;;;;;2.70;1.40;;;14.70;99.90;;;;;;5028391;28;20053;-86
2021/10/20 03:08:25;;;;;;;6.00;1.58;;;14.70;99.90;;;;;;5028122;28;20120;-86
2021/10/20 03:10:51;;;;;;;2.65;1.15;;;14.70;99.90;;;;;;5028652;28;20186;-86
2021/10/20 03:13:17;;;;;;;3.00;1.20;;;14.60;99.90;;;;;;5028460;28;20029;-87
2021/10/20 03:15:43;;;;;;;3.47;1.73;;;14.60;99.90;;;;;;5028043;28;20049;-88
2021/10/20 03:18:08;;;;;;;4.57;1.15;;;14.70;99.90;;;;;;5028347;28;20041;-88
2021/10/20 03:20:34;;;;;;;2.33;1.20;;;14.70;99.90;;;;;;5027918;28;20041;-87
2021/10/20 03:22:59;;;;;;;2.55;1.42;;;14.80;99.90;;;;;;5027975;28;20030;-87
2021/10/20 03:25:26;;;;;;;4.10;1.40;;;14.70;99.90;;;;;;5046707;28;20029;-88
2021/10/20 03:27:52;;;;;;;3.42;1.30;;;14.70;99.90;;;;;;5031683;28;20108;-86
2021/10/20 03:30:20;;;;;;;2.33;1.25;;;14.60;99.90;;;;;;5031609;28;20038;-86
2021/10/20 03:32:47;;;;;;;5.80;1.70;;;14.60;99.90;;;;;;5031866;28;20026;-88
2021/10/20 03:35:14;;;;;;;3.47;2.00;;;14.70;99.90;;;;;;5031611;28;20061;-88
2021/10/20 03:37:40;;;;;;;3.22;1.55;;;14.70;99.90;;;;;;5031723;28;20029;-87
2021/10/20 03:40:06;;;;;;;4.25;1.52;;;14.60;99.90;;;;;;5031529;28;20045;-88
2021/10/20 03:42:33;;;;;;;3.88;1.98;;;14.70;99.90;;;;;;5031451;28;20029;-88
2021/10/20 03:45:19;;;;;;;4.35;2.38;;;14.80;99.90;;;;;;5047542;28;20026;-85
2021/10/20 03:47:45;;;;;;;3.47;1.95;;;14.80;99.90;;;;;;5006972;28;20078;-87
2021/10/20 03:50:10;;;;;;;5.45;2.63;;;14.80;99.90;;;;;;4991042;28;20042;-88
2021/10/20 03:52:36;;;;;;;3.75;2.25;;;14.90;99.90;;;;;;4974568;28;20053;-87
2021/10/20 03:55:04;;;;;;;6.15;2.33;;;14.90;99.90;;;;;;4971050;28;20121;-87
2021/10/20 03:57:38;;;;;;;4.25;2.47;;;15.00;99.90;;;;;;4971440;28;20038;-89
2021/10/20 04:00:10;;;;;;;3.70;2.25;;;14.90;99.90;;;;;;4971340;28;20491;-89
2021/10/20 04:02:44;;;;;;;5.05;2.40;;;15.00;99.90;;;;;;4971399;28;20054;-88
2021/10/20 04:05:15;;;;;;;4.85;2.38;;;15.10;99.90;;;;;;4987033;28;20049;-86
2021/10/20 04:07:41;;;;;;;4.63;2.67;;;15.10;99.90;;;;;;4971285;28;20058;-86
2021/10/20 04:10:21;;;;;;;2.95;1.92;;;15.10;99.90;;;;;;4971040;28;20315;-86
2021/10/20 04:12:47;;;;;;;5.25;2.83;;;15.00;99.90;;;;;;4971333;28;20042;-86
2021/10/20 04:15:15;;;;;;;4.43;2.50;;;15.10;99.90;;;;;;4970889;28;20055;-88
2021/10/20 04:17:40;;;;;;;3.20;1.95;;;15.10;99.90;;;;;;4987205;28;20074;-87
2021/10/20 04:20:08;;;;;;;4.03;2.42;;;15.20;99.90;;;;;;4971047;28;20054;-86
2021/10/20 04:22:34;;;;;;;4.10;2.05;;;15.20;99.90;;;;;;4971149;28;20038;-88
2021/10/20 04:25:00;;;;;;;4.15;1.85;;;15.30;99.90;;;;;;5013465;28;20044;-86
2021/10/20 04:27:26;;;;;;;3.00;1.10;;;15.20;99.90;;;;;;5013951;28;20539;-87
2021/10/20 04:29:52;;;;;;;4.38;1.75;;;15.20;99.90;;;;;;5030320;28;20029;-89
2021/10/20 04:32:17;;;;;;;2.17;1.23;;;15.20;99.90;;;;;;5013998;28;20033;-86
2021/10/20 04:34:43;;;;;;;2.95;1.65;;;15.20;99.90;;;;;;5013297;28;20033;-88
2021/10/20 04:37:09;;;;;;;3.13;1.80;;;15.20;99.90;;;;;;5028286;28;20036;-87
2021/10/20 04:39:34;;;;;;;3.67;1.95;;;15.30;99.90;;;;;;5030173;28;20053;-86
2021/10/20 04:42:00;;;;;;;5.60;2.47;;;15.20;99.90;;;;;;5046667;28;20072;-87
2021/10/20 04:44:26;;;;;;;4.60;2.53;;;15.20;99.90;;;;;;5029955;28;20033;-86
2021/10/20 04:47:42;;;;;;;4.55;1.88;;;15.20;99.90;;;;;;5045712;28;20056;-87
2021/10/20 04:50:08;;;;;;;3.35;1.80;;;15.20;99.90;;;;;;4994155;28;20030;-86
2021/10/20 04:52:35;;;;;;;3.08;1.60;;;15.20;99.90;;;;;;5010562;28;20068;-85
2021/10/20 04:55:01;;;;;;;3.63;1.70;;;15.10;99.90;;;;;;4999269;28;20093;-88
2021/10/20 04:57:27;;;;;;;5.65;2.22;;;15.10;99.90;;;;;;5026769;28;20045;-91
2021/10/20 04:59:53;;;;;;;4.63;2.80;;;15.20;99.90;;;;;;5026662;28;20042;-90
2021/10/20 05:02:19;;;;;;;3.85;2.08;;;15.30;99.90;;;;;;5030858;23;20044;-90
2021/10/20 05:04:44;;;;;;;4.97;2.35;;;15.20;99.90;;;;;;5038763;23;20058;-91
2021/10/20 05:07:13;;;;;;;3.78;2.30;;;15.20;99.90;;;;;;5043429;28;20437;-90
2021/10/20 05:09:40;;;;;;;6.00;1.98;;;15.20;99.90;;;;;;5013803;28;20488;-90
2021/10/20 05:12:06;;;;;;;9.68;2.08;;;15.20;99.90;;;;;;5008829;28;20088;-90
2021/10/20 05:14:31;;;;;;;3.88;2.03;;;15.30;99.90;;;;;;5010924;28;20064;-91
2021/10/20 05:16:57;;;;;;;4.35;2.75;;;15.30;99.90;;;;;;5015457;28;20502;-91
2021/10/20 05:19:23;;;;;;;6.18;3.25;;;15.30;99.90;;;;;;5009696;28;20293;-87
2021/10/20 05:21:49;;;;;;;6.45;3.08;;;15.30;99.90;;;;;;5009534;28;20025;-91
2021/10/20 05:24:15;;;;;;;8.57;3.50;;;15.30;99.90;;;;;;5010249;28;20101;-88
2021/10/20 05:26:41;;;;;;;4.88;3.20;;;15.50;99.90;;;;;;5009484;28;20029;-90
2021/10/20 05:29:07;;;;;;;4.55;2.95;;;15.30;99.90;;;;;;5009968;28;20282;-90
2021/10/20 05:31:33;;;;;;;5.45;2.22;;;15.30;99.90;;;;;;5009727;28;20030;-91
2021/10/20 05:33:59;;;;;;;6.00;3.10;;;15.20;99.90;;;;;;4993603;28;20484;-91
2021/10/20 05:36:26;;;;;;;4.15;1.95;;;15.30;99.90;;;;;;5009455;28;20034;-91
2021/10/20 05:38:51;;;;;;;6.60;2.75;;;15.10;99.90;;;;;;5009512;28;20030;-90
2021/10/20 05:41:17;;;;;;;4.32;2.35;;;15.00;99.90;;;;;;5009509;28;20029;-90
2021/10/20 05:43:42;;;;;;;4.80;2.50;;;15.00;99.90;;;;;;5009570;28;20030;-90
2021/10/20 05:46:10;;;;;;;4.72;1.92;;;15.00;99.90;;;;;;5009123;28;20030;-92
2021/10/20 05:48:35;;;;;;;3.85;2.38;;;14.90;99.90;;;;;;5008886;28;20049;-90
2021/10/20 05:51:01;;;;;;;9.07;2.70;;;14.90;99.90;;;;;;5027068;28;20046;-90
2021/10/20 05:53:27;;;;;;;3.65;2.28;;;14.80;99.90;;;;;;5009346;28;20033;-90
2021/10/20 05:55:55;;;;;;;4.93;2.10;;;14.80;99.90;;;;;;5026975;28;20025;-90
2021/10/20 05:58:21;;;;;;;4.13;2.15;;;14.80;99.90;;;;;;5041963;28;20457;-90
2021/10/20 06:00:47;;;;;;;4.32;1.65;;;14.70;99.90;;;;;;5028378;28;20231;-88
2021/10/20 06:03:12;;;;;;;3.60;2.13;;;14.70;99.90;;;;;;5029722;28;20029;-91
2021/10/20 06:05:38;;;;;;;5.57;2.45;;;14.80;99.90;;;;;;5017215;28;20414;-90
2021/10/20 06:08:04;;;;;;;3.78;2.08;;;14.80;99.90;;;;;;5028008;28;20025;-91
2021/10/20 06:10:30;;;;;;;4.18;2.80;;;14.70;99.90;;;;;;5027982;28;20432;-91
2021/10/20 06:12:55;;;;;;;3.65;1.85;;;14.70;99.90;;;;;;5011675;28;20029;-90
2021/10/20 06:15:22;;;;;;;4.05;2.00;;;14.70;99.90;;;;;;5027607;28;20026;-90
2021/10/20 06:17:49;;;;;;;3.05;1.70;;;14.70;99.90;;;;;;5028076;28;20025;-91
2021/10/20 06:20:15;;;;;;;4.25;2.10;;;14.70;99.90;;;;;;5028008;28;20116;-89
2021/10/20 06:22:42;;;;;;;4.45;2.38;;;14.70;99.90;;;;;;5027908;28;20029;-90
2021/10/20 06:25:09;;;;;;;3.53;1.95;;;14.80;99.90;;;;;;5028047;28;20048;-89
2021/10/20 06:27:35;;;;;;;4.22;1.95;;;14.70;99.90;;;;;;5027883;28;20037;-89
2021/10/20 06:30:01;;;;;;;5.55;2.38;;;14.70;99.90;;;;;;5027535;28;20029;-91
2021/10/20 06:32:27;;;;;;;3.85;1.85;;;14.70;99.90;;;;;;5027055;28;20068;-89
2021/10/20 06:34:53;;;;;;;2.90;1.85;;;14.70;99.90;;;;;;5026915;28;20032;-90
2021/10/20 06:37:18;;;;;;;6.40;2.80;;;14.70;99.90;;;;;;5044950;28;20029;-89
2021/10/20 06:39:44;;;;;;;4.93;3.00;;;14.80;99.90;;;;;;5043645;28;20052;-90
2021/10/20 06:42:10;;;;;;;8.00;2.83;;;14.80;99.90;;;;;;5010233;28;20025;-87
2021/10/20 06:44:35;;;;;;;4.47;3.13;;;15.00;99.90;;;;;;5044926;28;20032;-89
2021/10/20 06:47:04;;;;;;;5.05;2.67;;;15.00;99.90;;;;;;5021411;28;20045;-88
2021/10/20 06:49:30;;;;;;;3.72;2.55;;;15.00;99.90;;;;;;5008868;28;20030;-88
2021/10/20 06:51:56;;;;;;;3.72;2.72;;;15.00;99.90;;;;;;5008991;28;20057;-91
2021/10/20 06:54:22;;;;;;;4.35;2.67;;;15.10;99.90;;;;;;4992959;28;20034;-90
2021/10/20 06:56:51;;;;;;;5.18;2.38;;;15.10;99.90;;;;;;4992709;28;20038;-91
2021/10/20 06:59:18;;;;;;;5.07;3.05;;;15.10;99.90;;;;;;5011127;28;20049;-90
2021/10/20 07:01:44;;;;;;;4.85;2.72;;;15.10;99.90;;;;;;5012526;28;20033;-90
2021/10/20 07:04:11;;;;;;;4.93;2.92;;;15.20;99.90;;;;;;5014809;28;20417;-90
2021/10/20 07:06:38;;;;;;;3.88;2.40;;;15.20;99.90;;;;;;5020307;28;20032;-90
2021/10/20 07:09:05;;;;;;;6.00;2.97;;;15.10;99.90;;;;;;5012079;28;20061;-91
2021/10/20 07:11:32;;;;;;;4.70;3.25;;;15.20;99.90;;;;;;5008606;28;20030;-89
2021/10/20 07:13:58;;;;;;;4.03;3.17;;;15.30;99.90;;;;;;5011171;28;20072;-89
2021/10/20 07:16:23;;;;;;;4.18;2.53;;;15.40;99.90;;;;;;5010881;28;20471;-90
2021/10/20 07:18:50;;;;;;;3.72;2.30;;;15.40;99.90;;;;;;5011493;28;20045;-90
2021/10/20 07:21:16;;;;;;;6.35;3.17;;;15.40;99.90;;;;;;5011313;28;20029;-90
2021/10/20 07:23:43;;;;;;;5.15;3.40;;;15.40;99.90;;;;;;4989353;28;20489;-91
2021/10/20 07:26:08;;;;;;;4.40;2.97;;;15.30;99.90;;;;;;4998449;28;20085;-89
2021/10/20 07:28:34;;;;;;;4.85;3.08;;;15.30;99.90;;;;;;4993568;28;20419;-90
2021/10/20 07:31:00;;;;;;;8.73;2.67;;;15.40;99.90;;;;;;4996113;28;20026;-89
2021/10/20 07:33:26;;;;;;;5.35;3.00;;;15.30;99.90;;;;;;5004668;28;20077;-92
2021/10/20 07:35:51;;;;;;;3.65;2.17;;;15.40;99.90;;;;;;4991417;28;20033;-87
2021/10/20 07:38:17;;;;;;;5.47;2.80;;;15.50;99.90;;;;;;5012474;28;20053;-88
2021/10/20 07:40:43;;;;;;;4.22;2.65;;;15.60;99.90;;;;;;5004865;28;20029;-90
2021/10/20 07:43:08;;;;;;;5.35;3.05;;;15.70;99.90;;;;;;4992862;28;20488;-89
2021/10/20 07:45:34;;;;;;;4.22;2.55;;;15.80;99.90;;;;;;5005433;28;20062;-90
2021/10/20 07:48:00;;;;;;;5.47;3.10;;;15.90;99.90;;;;;;5003312;28;20037;-89
2021/10/20 07:50:25;;;;;;;4.75;3.03;;;16.00;99.90;;;;;;5001127;28;20493;-90
2021/10/20 07:52:51;;;;;;;4.05;2.08;;;15.80;99.90;;;;;;5004227;28;20033;-90
2021/10/20 07:55:19;;;;;;;4.10;3.10;;;15.70;99.90;;;;;;4999900;28;20026;-91
2021/10/20 07:57:45;;;;;;;4.55;2.70;;;15.70;99.90;;;;;;5001034;28;20026;-90
2021/10/20 08:00:12;;;;;;;4.10;2.47;;;15.70;99.90;;;;;;5002574;28;20045;-89
2021/10/20 08:02:38;;;;;;;4.45;3.80;;;15.70;99.90;;;;;;5004835;28;20045;-90
2021/10/20 08:05:04;;;;;;;6.07;3.45;;;15.70;99.90;;;;;;5041602;28;20045;-90
2021/10/20 08:07:30;;;;;;;4.30;2.50;;;15.60;99.90;;;;;;5039934;28;20045;-90
2021/10/20 08:09:55;;;;;;;3.08;2.03;;;15.50;99.90;;;;;;5038194;28;20480;-90
2021/10/20 08:12:21;;;;;;;3.30;2.40;;;15.40;99.90;;;;;;5038247;28;20036;-91
2021/10/20 08:14:51;;;;;;;5.30;2.35;;;15.50;99.90;;;;;;5015483;28;20048;-89
2021/10/20 08:17:17;;;;;;;6.10;3.28;;;15.40;99.90;;;;;;5034511;28;20029;-90
2021/10/20 08:19:42;;;;;;;3.25;1.52;;;15.40;99.90;;;;;;5037123;28;20104;-89
2021/10/20 08:22:08;;;;;;;3.30;1.92;;;15.40;99.90;;;;;;5038241;28;20041;-89
2021/10/20 08:24:34;;;;;;;5.07;2.97;;;15.50;99.90;;;;;;5014444;28;20051;-91
2021/10/20 08:26:59;;;;;;;3.33;2.15;;;15.50;99.90;;;;;;5037678;28;20029;-90
2021/10/20 08:29:25;;;;;;;4.95;2.65;;;15.50;99.90;;;;;;5031890;28;20029;-88
2021/10/20 08:31:51;;;;;;;3.65;2.13;;;15.50;99.90;;;;;;5049150;28;20072;-88
2021/10/20 08:34:17;;;;;;;6.57;2.88;;;15.50;99.90;;;;;;5032802;28;20029;-89
2021/10/20 08:36:42;;;;;;;5.13;2.92;;;15.50;99.90;;;;;;5049757;28;20052;-89
2021/10/20 08:39:08;;;;;;;3.95;3.05;;;15.60;99.90;;;;;;5049516;28;20140;-88
2021/10/20 08:41:34;;;;;;;4.03;2.47;;;15.60;99.90;;;;;;5049529;28;20032;-90
2021/10/20 08:44:00;;;;;;;5.93;2.80;;;15.60;99.90;;;;;;5048473;28;20032;-88
2021/10/20 08:46:26;;;;;;;5.53;3.60;;;15.70;99.90;;;;;;5048670;28;20021;-89
2021/10/20 08:48:56;;;;;;;5.95;3.17;;;15.60;99.90;;;;;;5049259;28;20032;-89
2021/10/20 08:51:23;;;;;;;5.82;2.75;;;15.70;99.90;;;;;;5049224;28;20096;-88
2021/10/20 08:53:50;;;;;;;4.03;2.63;;;15.70;99.90;;;;;;5048374;28;20032;-89
2021/10/20 08:56:17;;;;;;;4.70;2.80;;;15.70;99.90;;;;;;5012714;28;20496;-89
2021/10/20 08:58:43;;;;;;;3.58;2.97;;;15.80;99.90;;;;;;5028940;28;20045;-90
2021/10/20 09:01:10;;;;;;;4.00;2.65;;;15.80;99.90;;;;;;5029077;28;20068;-90
2021/10/20 09:03:35;;;;;;;5.32;3.30;;;15.80;99.90;;;;;;5028840;28;20029;-89
2021/10/20 09:06:01;;;;;;;3.90;3.22;;;15.90;99.90;;;;;;5019981;28;20061;-89
2021/10/20 09:08:27;;;;;;;4.72;3.67;;;15.90;99.90;;;;;;5009324;28;20037;-89
2021/10/20 09:10:52;;;;;;;5.22;3.20;;;15.90;99.90;;;;;;5009253;28;20093;-88
2021/10/20 09:13:19;;;;;;;6.03;3.70;;;15.90;99.90;;;;;;5016817;28;20059;-89
2021/10/20 09:15:44;;;;;;;4.70;3.50;;;15.90;99.90;;;;;;5011918;28;20492;-89
2021/10/20 09:18:12;;;;;;;5.50;3.60;;;15.90;99.90;;;;;;5012504;28;20026;-88
2021/10/20 09:20:43;;;;;;;7.15;3.35;;;16.00;99.90;;;;;;5028701;28;20513;-88
2021/10/20 09:23:21;;;;;;;7.72;3.63;;;16.20;99.90;;;;;;5011351;28;20030;-90
2021/10/20 09:25:58;;;;;;;6.15;3.50;;;16.30;99.90;;;;;;5012067;28;20044;-88
2021/10/20 09:28:34;;;;;;;4.97;3.70;;;16.40;99.90;;;;;;5028783;28;20035;-89
2021/10/20 09:31:02;;;;;;;4.28;3.15;;;16.50;99.90;;;;;;5046140;28;20026;-88
2021/10/20 09:33:32;;;;;;;5.03;3.30;;;16.60;99.90;;;;;;5012430;28;20125;-89
2021/10/20 09:36:09;;;;;;;5.72;3.80;;;16.70;99.90;;;;;;5012002;28;20064;-88
2021/10/20 09:38:37;;;;;;;5.68;3.10;;;16.80;99.90;;;;;;5028708;28;20036;-88
2021/10/20 09:41:06;;;;;;;6.65;3.83;;;16.80;99.90;;;;;;5011949;28;20037;-88
2021/10/20 09:43:32;;;;;;;6.30;3.78;;;16.70;99.90;;;;;;5028577;28;20029;-89
2021/10/20 09:46:00;;;;;;;5.60;4.03;;;16.70;99.90;;;;;;5011580;28;20037;-85
2021/10/20 09:48:26;;;;;;;4.35;3.53;;;16.80;99.90;;;;;;5028508;28;20068;-87
2021/10/20 09:51:07;;;;;;;4.78;3.42;;;16.80;99.90;;;;;;5011988;28;20425;-88
2021/10/20 09:53:36;;;;;;;4.15;2.95;;;16.80;99.90;;;;;;5011878;28;20040;-87
2021/10/20 09:56:18;;;;;;;5.38;3.17;;;17.00;99.90;;;;;;5011823;28;20554;-87
2021/10/20 09:58:46;;;;;;;5.63;3.72;;;17.00;99.90;;;;;;5028137;28;20041;-86
2021/10/20 10:01:13;;;;;;;5.60;3.97;;;17.20;99.90;;;;;;5027914;28;20244;-86
2021/10/20 10:03:39;;;;;;;5.07;3.92;;;17.20;99.90;;;;;;5028139;28;20124;-88
2021/10/20 10:06:05;;;;;;;6.53;4.07;;;17.30;99.90;;;;;;5027833;28;20041;-87
2021/10/20 10:08:30;;;;;;;7.50;3.78;;;17.20;99.90;;;;;;5011769;28;20075;-87
2021/10/20 10:10:59;;;;;;;5.78;3.05;;;17.30;99.90;;;;;;5011609;28;20030;-87
2021/10/20 10:13:28;;;;;;;6.32;3.88;;;17.20;99.90;;;;;;5011644;28;20462;-89
2021/10/20 10:15:54;;;;;;;12.63;4.47;;;17.10;99.90;;;;;;5011380;28;20076;-86
2021/10/20 10:18:21;;;;;;;8.10;3.58;;;17.10;99.90;;;;;;5027825;28;20397;-87
2021/10/20 10:20:46;;;;;;;6.80;3.75;;;17.20;99.90;;;;;;5027519;28;20037;-87
2021/10/20 10:23:22;;;;;;;6.28;3.65;;;17.30;99.90;;;;;;5010890;28;20116;-86
2021/10/20 10:25:58;;;;;;;7.15;4.32;;;17.50;99.90;;;;;;5008995;28;20037;-86
2021/10/20 10:28:30;;;;;;;4.75;3.60;;;17.50;99.90;;;;;;5027903;28;20029;-88
2021/10/20 10:31:08;;;;;;;5.07;3.42;;;17.40;99.90;;;;;;5027085;28;20030;-89
2021/10/20 10:33:39;;;;;;;5.78;3.95;;;17.40;99.90;;;;;;5026961;28;20029;-88
2021/10/20 10:36:19;;;;;;;4.38;3.30;;;17.40;99.90;;;;;;5027577;28;20036;-87
2021/10/20 10:38:51;;;;;;;7.22;3.58;;;17.30;99.90;;;;;;5027899;28;20025;-86
2021/10/20 10:41:20;;;;;;;5.22;3.70;;;17.30;99.90;;;;;;5027679;28;20037;-89
2021/10/20 10:44:08;;;;;;;6.93;4.68;;;17.20;99.90;;;;;;5027651;28;20093;-87
2021/10/20 10:46:35;;;;;;;4.65;3.30;;;17.20;99.90;;;;;;5027582;28;20035;-89
2021/10/20 10:49:22;;;;;;;4.45;3.28;;;17.10;99.90;;;;;;5027591;28;20035;-87
2021/10/20 10:52:06;;;;;;;5.15;3.13;;;17.10;99.90;;;;;;5011072;28;20057;-88
2021/10/20 10:54:37;;;;;;;5.78;3.15;;;17.10;99.90;;;;;;5021000;28;20034;-87
2021/10/20 10:57:14;;;;;;;6.05;2.92;;;17.10;99.90;;;;;;5007757;28;20030;-87
2021/10/20 11:00:03;;;;;;;4.85;3.28;;;17.20;99.90;;;;;;5007697;28;20129;-89
2021/10/20 11:02:49;;;;;;;4.13;3.07;;;17.20;99.90;;;;;;5007569;28;20029;-87
2021/10/20 11:05:20;;;;;;;3.92;2.50;;;17.20;99.90;;;;;;5009036;28;20050;-88
2021/10/20 11:07:49;;;;;;;4.22;2.35;;;17.20;99.90;;;;;;5063730;28;20107;-89
2021/10/20 11:10:16;;;;;;;6.15;2.42;;;17.20;99.90;;;;;;5047114;28;20041;-89
2021/10/20 11:12:50;;;;;;;4.57;2.40;;;17.20;99.90;;;;;;5047254;28;20100;-89
2021/10/20 11:15:17;;;;;;;5.10;2.33;;;17.20;99.90;;;;;;5047153;28;20078;-89
2021/10/20 11:17:44;;;;;;;4.72;2.45;;;17.20;99.90;;;;;;5046875;28;20029;-87
2021/10/20 11:20:12;;;;;;;3.65;2.78;;;17.20;99.90;;;;;;5047029;28;20095;-89
2021/10/20 11:22:39;;;;;;;4.22;2.70;;;17.30;99.90;;;;;;5046931;28;20033;-89
2021/10/20 11:25:11;;;;;;;3.83;2.42;;;17.40;99.90;;;;;;5047080;28;20037;-90
2021/10/20 11:27:38;;;;;;;6.35;2.70;;;17.60;99.90;;;;;;5030717;28;20032;-88
2021/10/20 11:30:05;;;;;;;3.80;2.13;;;17.70;99.90;;;;;;5030714;28;20029;-88
2021/10/20 11:32:31;;;;;;;5.82;2.92;;;17.70;99.90;;;;;;5046929;28;20036;-85
2021/10/20 11:35:12;;;;;;;3.65;2.05;;;17.70;99.90;;;;;;5047124;28;20037;-87
2021/10/20 11:37:38;;;;;;;5.57;2.50;;;17.60;99.90;;;;;;5043641;28;20029;-87
2021/10/20 11:40:04;;;;;;;4.18;2.10;;;17.70;99.90;;;;;;5007448;28;20080;-87
2021/10/20 11:42:32;;;;;;;3.47;2.17;;;17.70;99.90;;;;;;5007536;28;20030;-86
2021/10/20 11:45:19;;;;;;;3.35;2.30;;;17.60;99.90;;;;;;5008768;28;20087;-87
2021/10/20 11:47:45;;;;;;;5.07;2.75;;;17.40;99.90;;;;;;4956017;28;20151;-88
2021/10/20 11:50:19;;;;;;;3.22;1.83;;;17.30;99.90;;;;;;4965392;28;20039;-89
2021/10/20 11:52:57;;;;;;;3.60;2.20;;;17.30;99.90;;;;;;4989786;28;20030;-88
2021/10/20 11:55:23;;;;;;;4.50;2.45;;;17.40;99.90;;;;;;4989200;28;20031;-86
2021/10/20 11:57:48;;;;;;;4.75;2.10;;;17.40;99.90;;;;;;4989916;28;20039;-87
2021/10/20 12:00:14;;;;;;;3.92;2.35;;;17.30;99.90;;;;;;4989678;28;20130;-86
2021/10/20 12:02:39;;;;;;;3.83;2.00;;;17.50;99.90;;;;;;4989799;28;20038;-86
2021/10/20 12:05:05;;;;;;;6.50;2.95;;;17.70;99.90;;;;;;4989737;28;20206;-88
2021/10/20 12:07:32;;;;;;;4.47;2.03;;;17.50;99.90;;;;;;5008356;28;20101;-87
2021/10/20 12:10:01;;;;;;;4.72;2.78;;;17.50;99.90;;;;;;5009468;28;20046;-86
2021/10/20 12:12:27;;;;;;;3.50;2.35;;;17.40;99.90;;;;;;5025968;28;20062;-89
2021/10/20 12:14:58;;;;;;;2.97;1.90;;;17.40;99.90;;;;;;4993318;28;20029;-87
2021/10/20 12:17:28;;;;;;;4.68;2.17;;;17.30;99.90;;;;;;5009684;28;20036;-88
2021/10/20 12:19:58;;;;;;;;;;;17.30;99.90;;;;;;5009550;28;20053;-87
2021/10/20 12:22:26;;;;;;;3.80;2.05;;;17.30;99.90;;;;;;5009276;28;19993;-87
2021/10/20 12:24:54;;;;;;;3.72;2.10;;;17.30;99.90;;;;;;5030309;28;20048;-91
2021/10/20 12:27:21;;;;;;;5.38;2.20;;;17.30;99.90;;;;;;5049839;28;20079;-88
2021/10/20 12:29:51;;;;;;;5.13;2.17;;;17.20;99.90;;;;;;5049637;28;20091;-87
2021/10/20 12:32:23;;;;;;;4.28;2.25;;;17.20;99.90;;;;;;5049995;28;20029;-88
2021/10/20 12:35:03;;;;;;;3.92;2.20;;;17.20;99.90;;;;;;5049500;28;20067;-88
2021/10/20 12:37:50;;;;;;;4.05;2.00;;;17.10;99.90;;;;;;5049769;28;20486;-88
2021/10/20 12:40:22;;;;;;;7.18;3.08;;;17.10;99.90;;;;;;5033254;28;20090;-88
2021/10/20 12:42:58;;;;;;;7.10;2.88;;;17.10;99.90;;;;;;5049335;28;20060;-86
2021/10/20 12:45:30;;;;;;;5.90;2.50;;;17.10;99.90;;;;;;5049212;28;20032;-88
2021/10/20 12:48:00;;;;;;;5.05;2.28;;;17.20;99.90;;;;;;5049401;28;20036;-87
2021/10/20 12:50:27;;;;;;;;;;;17.20;99.90;;;;;;5049634;28;20033;-87